Time;durP1;ratioP1;P1;durP2;ratioP2;P2;SDS_P1;SDS_P2;PMS_P1;PMS_P2;Temp;Humidity;BMP_temperature;BMP_pressure;BME280_temperature;BME280_humidity;BME280_pressure;Samples;Min_cycle;Max_cycle;Signal;HPM_P1;HPM_P2
2022/12/08 00:00:44;;;;;;;46.00;25.90;;;;;;;8.08;94.31;99484.50;5051842;28;20672;-68
2022/12/08 00:03:11;;;;;;;49.37;27.53;;;;;;;8.08;94.19;99492.44;5052206;28;20646;-68
2022/12/08 00:11:06;;;;;;;45.00;26.73;;;;;;;8.06;94.65;99507.66;5040710;28;20200;-71
2022/12/08 00:13:32;;;;;;;40.67;25.60;;;;;;;8.05;94.66;99508.66;5052674;28;20341;-68
2022/12/08 00:16:00;;;;;;;45.80;26.50;;;;;;;8.11;94.72;99505.28;5052044;28;20254;-68
2022/12/08 00:18:26;;;;;;;40.67;26.37;;;;;;;8.15;94.40;99511.84;5052056;28;20325;-68
2022/12/08 00:20:57;;;;;;;42.17;26.47;;;;;;;8.15;94.88;99511.84;5051556;28;20226;-68
2022/12/08 00:23:24;;;;;;;41.03;25.63;;;;;;;8.19;94.46;99513.13;5051173;28;20262;-69
2022/12/08 00:25:50;;;;;;;41.40;25.37;;;;;;;8.17;94.17;99517.81;5051472;28;20250;-70
2022/12/08 00:28:17;;;;;;;42.67;26.10;;;;;;;8.19;93.84;99513.13;5051709;28;20250;-70
2022/12/08 00:30:44;;;;;;;43.90;26.43;;;;;;;8.18;93.67;99527.38;5051758;28;20551;-70
2022/12/08 00:33:11;;;;;;;43.57;26.33;;;;;;;8.19;93.67;99529.00;5051870;28;20189;-70
2022/12/08 00:35:38;;;;;;;41.27;24.37;;;;;;;8.20;94.99;99509.47;5051644;28;20684;-70
2022/12/08 00:38:06;;;;;;;41.03;25.13;;;;;;;8.26;94.74;99514.09;5051826;28;20193;-70
2022/12/08 00:40:33;;;;;;;51.40;24.90;;;;;;;8.26;94.07;99514.09;5051552;28;20222;-69
2022/12/08 00:43:00;;;;;;;44.43;25.03;;;;;;;8.23;93.97;99510.00;5051445;28;20196;-71
2022/12/08 00:45:26;;;;;;;41.23;25.23;;;;;;;8.22;94.04;99513.66;5051375;28;20753;-70
2022/12/08 00:47:53;;;;;;;49.00;26.77;;;;;;;8.25;94.19;99517.75;5051772;28;20200;-68
2022/12/08 00:50:20;;;;;;;43.80;25.70;;;;;;;8.26;93.69;99508.81;5051777;28;20193;-69
2022/12/08 00:52:46;;;;;;;44.23;26.07;;;;;;;8.28;93.98;99506.78;5051721;28;20242;-69
2022/12/08 00:55:14;;;;;;;40.97;25.20;;;;;;;8.37;94.35;99500.44;5051698;28;20196;-69
2022/12/08 00:57:41;;;;;;;41.70;25.10;;;;;;;8.45;93.61;99503.00;5051321;28;20200;-69
2022/12/08 01:00:08;;;;;;;45.53;26.07;;;;;;;8.51;93.28;99507.53;5051382;28;20195;-70
2022/12/08 01:02:35;;;;;;;49.83;27.00;;;;;;;8.55;92.59;99507.00;5051926;28;20200;-69
2022/12/08 01:05:02;;;;;;;45.17;25.50;;;;;;;8.57;92.54;99509.44;5050940;28;20270;-69
2022/12/08 01:07:28;;;;;;;43.77;25.13;;;;;;;8.61;93.38;99508.06;5051136;28;20219;-69
2022/12/08 01:09:56;;;;;;;47.20;25.73;;;;;;;8.56;92.81;99513.09;5051884;28;20270;-69
2022/12/08 01:12:25;;;;;;;40.90;24.90;;;;;;;8.55;92.75;99503.53;5051864;28;20200;-69
2022/12/08 01:14:51;;;;;;;42.47;24.57;;;;;;;8.59;92.87;99504.81;5052396;28;20283;-69
2022/12/08 01:17:18;;;;;;;44.60;25.27;;;;;;;8.65;92.53;99504.91;5051953;28;20206;-69
2022/12/08 01:19:45;;;;;;;43.67;24.20;;;;;;;8.70;92.76;99512.31;5051306;28;20225;-69
2022/12/08 01:22:11;;;;;;;41.33;24.30;;;;;;;8.71;92.00;99513.94;5052444;28;20196;-69
2022/12/08 01:24:38;;;;;;;42.20;24.20;;;;;;;8.61;91.52;99514.22;5055259;28;20259;-69
2022/12/08 01:27:05;;;;;;;42.30;23.93;;;;;;;8.55;92.50;99514.13;5054625;28;20201;-69
2022/12/08 01:29:33;;;;;;;45.73;23.43;;;;;;;8.51;92.54;99510.19;5054832;28;20575;-70
2022/12/08 01:32:00;;;;;;;40.07;22.83;;;;;;;8.48;92.94;99523.78;5034962;28;20275;-70
2022/12/08 01:34:26;;;;;;;37.67;22.93;;;;;;;8.45;93.11;99518.88;5034676;28;20751;-69
2022/12/08 01:36:53;;;;;;;33.23;22.00;;;;;;;8.45;92.74;99511.72;5035069;28;20193;-69
2022/12/08 01:39:20;;;;;;;38.73;23.00;;;;;;;8.47;92.49;99522.16;5034603;28;20669;-70
2022/12/08 01:41:47;;;;;;;37.87;22.03;;;;;;;8.48;91.93;99524.63;5035418;28;20197;-69
2022/12/08 01:44:51;;;;;;;34.63;20.93;;;;;;;8.53;92.42;99518.78;5034644;28;20196;-69
2022/12/08 01:47:19;;;;;;;37.70;21.20;;;;;;;8.55;92.36;99525.53;5034836;28;20197;-70
2022/12/08 01:49:47;;;;;;;34.13;21.40;;;;;;;8.56;91.42;99527.19;5034642;28;20194;-70
2022/12/08 01:52:18;;;;;;;33.43;21.40;;;;;;;8.54;91.36;99517.78;5034485;28;20283;-70
2022/12/08 01:54:49;;;;;;;35.47;21.13;;;;;;;8.49;92.60;99513.00;5034226;28;20214;-70
2022/12/08 01:57:21;;;;;;;35.47;21.17;;;;;;;8.42;92.21;99514.75;5034138;28;20185;-69
2022/12/08 01:59:54;;;;;;;32.33;19.80;;;;;;;8.38;92.43;99510.00;5043250;28;20188;-70
2022/12/08 02:02:24;;;;;;;35.70;20.80;;;;;;;8.35;92.66;99510.34;5053192;28;20188;-70
2022/12/08 02:04:50;;;;;;;35.80;22.40;;;;;;;8.32;92.49;99513.34;5053954;28;20228;-69
2022/12/08 02:07:18;;;;;;;37.77;21.70;;;;;;;8.25;92.52;99507.16;5053844;28;20243;-69
2022/12/08 02:09:46;;;;;;;38.10;22.90;;;;;;;8.19;93.06;99507.84;5054135;28;20239;-69
2022/12/08 02:12:13;;;;;;;40.23;23.87;;;;;;;8.18;92.97;99511.50;5054590;28;20192;-69
2022/12/08 02:14:39;;;;;;;39.07;22.57;;;;;;;8.09;94.16;99508.09;5054135;28;20189;-69
2022/12/08 02:17:19;;;;;;;43.70;24.33;;;;;;;8.15;94.24;99503.91;5054083;28;20246;-69
2022/12/08 02:20:17;;;;;;;52.77;27.93;;;;;;;8.20;94.71;99498.91;5054019;28;20282;-69
2022/12/08 02:22:53;;;;;;;50.07;25.23;;;;;;;8.23;93.89;99506.50;5053931;28;20246;-69
2022/12/08 02:25:27;;;;;;;39.67;22.03;;;;;;;8.18;94.13;99507.03;5053690;28;20204;-69
2022/12/08 02:28:02;;;;;;;39.43;22.50;;;;;;;8.14;93.86;99504.94;5054248;28;20192;-69
2022/12/08 02:30:38;;;;;;;39.20;21.80;;;;;;;8.13;93.74;99503.28;5054037;28;20185;-70
2022/12/08 02:33:48;;;;;;;40.87;23.63;;;;;;;8.20;95.51;99498.91;5053134;28;20648;-70
2022/12/08 02:36:22;;;;;;;41.50;25.93;;;;;;;8.23;94.69;99507.34;5054622;28;20292;-69
2022/12/08 02:39:00;;;;;;;34.20;22.17;;;;;;;8.22;94.44;99512.81;5053783;28;20314;-69
2022/12/08 02:41:37;;;;;;;33.47;20.37;;;;;;;8.17;94.14;99513.31;5053973;28;20185;-68
2022/12/08 02:44:11;;;;;;;30.17;19.63;;;;;;;8.09;94.94;99523.16;5053591;28;20192;-69
2022/12/08 02:46:42;;;;;;;36.80;21.47;;;;;;;8.04;94.87;99510.47;5053230;28;20203;-68
2022/12/08 02:49:13;;;;;;;37.17;20.73;;;;;;;7.98;94.84;99515.66;5053818;28;20191;-69
2022/12/08 02:51:40;;;;;;;31.97;20.50;;;;;;;7.94;95.12;99511.72;5053767;28;20185;-69
2022/12/08 02:54:07;;;;;;;34.30;21.57;;;;;;;8.02;95.99;99517.78;5053718;28;20192;-69
2022/12/08 02:57:00;;;;;;;40.57;22.13;;;;;;;8.06;95.91;99516.41;5053845;28;20216;-71
2022/12/08 02:59:41;;;;;;;33.47;18.90;;;;;;;8.11;95.39;99521.16;5052942;28;20283;-71
2022/12/08 03:02:34;;;;;;;34.17;20.30;;;;;;;8.07;94.98;99519.88;5053550;28;20254;-71
2022/12/08 03:05:11;;;;;;;36.90;21.33;;;;;;;8.04;95.34;99518.41;5053400;28;20203;-71
2022/12/08 03:07:43;;;;;;;28.50;20.10;;;;;;;8.07;95.67;99509.28;5052619;28;20246;-72
2022/12/08 03:10:12;;;;;;;33.63;20.20;;;;;;;8.15;95.64;99509.22;5052860;28;20219;-71
2022/12/08 03:12:43;;;;;;;30.37;19.63;;;;;;;8.19;95.27;99513.13;5052629;28;20695;-71
2022/12/08 03:15:15;;;;;;;32.73;20.33;;;;;;;8.28;95.05;99512.91;5053602;28;20271;-72
2022/12/08 03:17:46;;;;;;;33.00;19.63;;;;;;;8.25;94.98;99509.81;5052829;28;20189;-71
2022/12/08 03:20:20;;;;;;;34.50;18.93;;;;;;;8.24;94.83;99508.16;5053006;28;20628;-72
2022/12/08 03:22:50;;;;;;;32.50;19.67;;;;;;;8.19;94.91;99502.56;5053626;28;20188;-72
2022/12/08 03:25:20;;;;;;;38.53;21.67;;;;;;;8.28;95.02;99498.84;5052104;28;20242;-71
2022/12/08 03:27:48;;;;;;;47.03;24.20;;;;;;;8.32;94.14;99503.63;5052891;28;20714;-69
2022/12/08 03:30:15;;;;;;;42.47;23.40;;;;;;;8.30;94.45;99499.50;5052530;28;20251;-68
2022/12/08 03:32:47;;;;;;;37.90;23.30;;;;;;;8.35;94.51;99502.41;5052587;28;20193;-68
2022/12/08 03:35:19;;;;;;;31.80;20.23;;;;;;;8.26;94.44;99508.81;5052380;28;20200;-68
2022/12/08 03:37:47;;;;;;;31.23;18.50;;;;;;;8.14;95.15;99520.78;5052298;28;20185;-68
2022/12/08 03:40:15;;;;;;;32.37;19.00;;;;;;;8.12;94.77;99520.13;5051829;28;20188;-68
2022/12/08 03:42:42;;;;;;;33.80;20.70;;;;;;;8.04;95.62;99522.88;5052638;28;20606;-69
2022/12/08 03:45:09;;;;;;;30.10;18.60;;;;;;;8.07;95.95;99525.16;5051736;28;20704;-69
2022/12/08 03:47:36;;;;;;;29.07;17.57;;;;;;;8.12;96.24;99518.31;5052060;28;20744;-70
2022/12/08 03:50:04;;;;;;;34.13;20.93;;;;;;;8.11;95.67;99521.97;5051978;28;20758;-69
2022/12/08 03:52:32;;;;;;;32.90;19.60;;;;;;;8.17;96.17;99525.75;5052315;28;20196;-70
2022/12/08 03:54:58;;;;;;;39.00;21.80;;;;;;;8.20;94.75;99526.19;5052132;28;20189;-69
2022/12/08 03:57:25;;;;;;;33.73;18.53;;;;;;;8.24;94.91;99522.22;5051903;28;20694;-70
2022/12/08 03:59:52;;;;;;;32.97;19.93;;;;;;;8.22;94.40;99523.41;5052668;28;20192;-68
2022/12/08 04:02:18;;;;;;;36.83;19.97;;;;;;;8.24;94.88;99518.72;5052752;28;20246;-69
2022/12/08 04:04:45;;;;;;;35.43;19.53;;;;;;;8.25;94.20;99517.75;5051805;28;20197;-68
2022/12/08 04:07:12;;;;;;;29.87;18.30;;;;;;;8.20;94.79;99512.97;5051778;28;20703;-69
2022/12/08 04:09:40;;;;;;;31.13;18.27;;;;;;;8.21;94.80;99511.19;5051784;28;20201;-70
2022/12/08 04:12:07;;;;;;;29.93;18.20;;;;;;;8.05;94.97;99484.84;5052188;28;20193;-70
2022/12/08 04:14:34;;;;;;;31.33;19.10;;;;;;;8.15;94.24;99519.78;5051661;28;20741;-69
2022/12/08 04:17:01;;;;;;;33.87;18.60;;;;;;;8.17;94.23;99513.31;5052353;28;20353;-70
2022/12/08 04:19:28;;;;;;;35.47;18.97;;;;;;;8.18;93.98;99524.72;5051923;28;20235;-69
2022/12/08 04:21:54;;;;;;;32.67;17.77;;;;;;;8.15;94.40;99523.28;5051481;28;20200;-69
2022/12/08 04:24:21;;;;;;;29.10;18.77;;;;;;;8.19;94.47;99524.56;5051592;28;20262;-69
2022/12/08 04:26:49;;;;;;;32.80;18.83;;;;;;;8.21;93.46;99521.75;5051973;28;20220;-70
2022/12/08 04:29:16;;;;;;;32.23;18.63;;;;;;;8.24;93.78;99516.91;5052335;28;20198;-69
2022/12/08 04:31:43;;;;;;;33.03;19.73;;;;;;;8.30;92.47;99531.25;5051822;28;20197;-70
2022/12/08 04:34:09;;;;;;;29.23;18.50;;;;;;;8.34;93.50;99532.53;5051899;28;20188;-69
2022/12/08 04:36:36;;;;;;;25.50;17.37;;;;;;;8.34;92.67;99527.25;5053040;28;20200;-69
2022/12/08 04:39:03;;;;;;;30.97;17.80;;;;;;;8.33;92.91;99533.56;5051393;28;20664;-70
2022/12/08 04:41:30;;;;;;;32.60;18.57;;;;;;;8.34;93.24;99533.34;5050919;28;20278;-70
2022/12/08 04:43:58;;;;;;;33.70;19.13;;;;;;;8.22;92.43;99524.22;5051533;28;20193;-70
2022/12/08 04:46:25;;;;;;;30.73;18.07;;;;;;;8.19;92.53;99529.00;5051675;28;20256;-70
2022/12/08 04:48:51;;;;;;;33.97;17.73;;;;;;;8.22;93.28;99524.22;5051394;28;20736;-70
2022/12/08 04:51:20;;;;;;;29.43;17.93;;;;;;;8.18;93.60;99522.09;5052023;28;20223;-71
2022/12/08 04:53:47;;;;;;;28.80;18.60;;;;;;;8.18;94.31;99522.09;5051583;28;20188;-70
2022/12/08 04:56:14;;;;;;;32.80;18.47;;;;;;;8.16;94.10;99514.31;5051385;28;20620;-69
2022/12/08 04:58:41;;;;;;;33.87;18.60;;;;;;;8.20;94.43;99520.91;5055649;28;20202;-69
2022/12/08 05:01:09;;;;;;;36.60;19.07;;;;;;;8.20;94.27;99525.34;5055485;28;20196;-69
2022/12/08 05:03:36;;;;;;;33.47;18.70;;;;;;;8.15;93.44;99525.06;5055195;28;20197;-70
2022/12/08 05:06:03;;;;;;;29.73;19.53;;;;;;;8.11;95.05;99529.09;5055324;28;20217;-69
2022/12/08 05:08:30;;;;;;;46.80;20.43;;;;;;;8.11;94.58;99537.03;5055278;28;20618;-68
2022/12/08 05:11:02;;;;;;;52.87;23.03;;;;;;;8.10;94.56;99533.56;5054545;28;20193;-68
2022/12/08 05:13:29;;;;;;;36.60;19.73;;;;;;;8.18;95.04;99540.59;5054620;28;20220;-67
2022/12/08 05:16:02;;;;;;;55.03;20.53;;;;;;;8.21;95.50;99535.00;5052785;28;20880;-67
2022/12/08 05:18:31;;;;;;;38.53;19.93;;;;;;;8.27;94.46;99537.75;5054201;28;20712;-67
2022/12/08 05:20:58;;;;;;;32.37;18.40;;;;;;;8.33;94.57;99538.84;5055215;28;20307;-67
2022/12/08 05:23:24;;;;;;;34.90;19.00;;;;;;;8.37;94.32;99548.06;5054635;28;20753;-68
2022/12/08 05:25:51;;;;;;;40.40;20.63;;;;;;;8.36;93.58;99556.97;5054847;28;20250;-68
2022/12/08 05:28:18;;;;;;;35.97;19.13;;;;;;;8.40;93.22;99564.41;5055831;28;20196;-68
2022/12/08 05:30:44;;;;;;;34.73;19.20;;;;;;;8.37;93.57;99548.06;5054761;28;20668;-68
2022/12/08 05:33:11;;;;;;;41.20;19.37;;;;;;;8.44;94.00;99560.38;5055081;28;20192;-68
2022/12/08 05:35:40;;;;;;;43.63;20.13;;;;;;;8.47;92.52;99565.31;5054972;28;20203;-68
2022/12/08 05:38:07;;;;;;;37.37;19.90;;;;;;;8.38;93.26;99566.38;5054773;28;20188;-69
2022/12/08 05:40:33;;;;;;;36.47;19.40;;;;;;;8.37;93.37;99563.94;5054655;28;20254;-68
2022/12/08 05:43:00;;;;;;;31.93;18.90;;;;;;;8.34;92.48;99573.03;5055609;28;20574;-70
2022/12/08 05:45:27;;;;;;;36.23;19.27;;;;;;;8.26;92.90;99570.50;5054162;28;20197;-69
2022/12/08 05:47:54;;;;;;;51.30;20.27;;;;;;;8.24;95.08;99574.28;5054061;28;20273;-70
2022/12/08 05:50:21;;;;;;;55.03;21.70;;;;;;;8.16;94.72;99556.66;5053999;28;20196;-70
2022/12/08 05:52:49;;;;;;;66.20;29.17;;;;;;;8.26;94.68;99580.25;5054193;28;20235;-70
2022/12/08 05:55:15;;;;;;;45.73;23.37;;;;;;;8.18;94.21;99578.47;5054376;28;20270;-69
2022/12/08 05:57:42;;;;;;;46.40;25.20;;;;;;;8.14;95.08;99584.28;5054245;28;20254;-69
2022/12/08 06:00:10;;;;;;;54.13;27.47;;;;;;;8.11;94.89;99580.19;5054522;28;20234;-68
2022/12/08 06:02:36;;;;;;;94.73;45.40;;;;;;;8.05;95.47;99585.38;5053865;28;20658;-68
2022/12/08 06:05:03;;;;;;;93.40;40.30;;;;;;;8.01;96.03;99584.06;5053649;28;20195;-68
2022/12/08 06:07:30;;;;;;;87.73;43.60;;;;;;;8.10;97.40;99583.00;5053874;28;20228;-67
2022/12/08 06:09:58;;;;;;;89.53;41.00;;;;;;;8.13;96.47;99594.03;5053441;28;20578;-67
2022/12/08 06:12:25;;;;;;;122.00;38.70;;;;;;;8.20;96.59;99588.84;5053746;28;20199;-69
2022/12/08 06:14:51;;;;;;;63.27;31.10;;;;;;;8.30;96.22;99584.19;5054177;28;20610;-67
2022/12/08 06:17:18;;;;;;;73.87;31.80;;;;;;;8.34;96.00;99582.81;5054538;28;20196;-68
2022/12/08 06:19:45;;;;;;;78.57;32.90;;;;;;;8.41;95.53;99586.41;5053693;28;20313;-66
2022/12/08 06:22:11;;;;;;;64.20;25.17;;;;;;;8.45;94.81;99590.34;5053339;28;20196;-67
2022/12/08 06:24:38;;;;;;;55.20;24.20;;;;;;;8.45;94.94;99583.19;5053619;28;20188;-68
2022/12/08 06:27:06;;;;;;;47.83;26.00;;;;;;;8.40;94.59;99584.75;5053223;28;20254;-67
2022/12/08 06:29:33;;;;;;;62.20;26.23;;;;;;;8.33;95.95;99583.84;5053857;28;20188;-65
2022/12/08 06:32:00;;;;;;;47.33;22.20;;;;;;;8.24;94.78;99588.38;5053691;28;20192;-66
2022/12/08 06:34:27;;;;;;;55.13;22.13;;;;;;;8.23;95.13;99583.25;5053413;28;20246;-66
2022/12/08 06:36:53;;;;;;;47.20;24.93;;;;;;;8.25;95.51;99582.06;5053311;28;20201;-67
2022/12/08 06:39:20;;;;;;;44.47;24.80;;;;;;;8.24;95.96;99596.31;5053728;28;20280;-68
2022/12/08 06:44:32;;;;;;;43.73;22.27;;;;;;;8.19;95.79;99595.16;5053856;28;20187;-67
2022/12/08 06:46:59;;;;;;;39.20;23.30;;;;;;;8.12;96.09;99604.78;5052556;28;20696;-67
2022/12/08 06:49:25;;;;;;;43.77;23.20;;;;;;;8.13;96.37;99601.97;5053128;28;20248;-72
2022/12/08 06:51:52;;;;;;;49.47;23.63;;;;;;;8.17;96.78;99597.16;5053227;28;20640;-68
2022/12/08 06:54:19;;;;;;;46.90;23.73;;;;;;;8.14;96.97;99605.44;5049120;28;20193;-67
2022/12/08 06:56:45;;;;;;;64.77;19.47;;;;;;;8.24;99.19;99601.59;5052731;28;20197;-68
2022/12/08 06:59:12;;;;;;;77.83;33.13;;;;;;;8.57;99.52;99602.94;5053521;28;20197;-67
2022/12/08 07:01:40;;;;;;;54.93;29.73;;;;;;;8.68;98.05;99610.44;5052472;28;20200;-67
2022/12/08 07:04:07;;;;;;;51.93;25.30;;;;;;;8.73;96.04;99607.25;5053039;28;20618;-67
2022/12/08 07:06:34;;;;;;;40.70;21.77;;;;;;;8.76;96.04;99602.41;5052899;28;20220;-66
2022/12/08 07:09:00;;;;;;;47.80;24.37;;;;;;;8.79;95.36;99617.13;5052731;28;20660;-67
2022/12/08 07:11:27;;;;;;;46.07;22.07;;;;;;;8.88;95.45;99608.91;5052671;28;20618;-67
2022/12/08 07:13:55;;;;;;;53.03;21.27;;;;;;;8.98;94.53;99620.03;5053050;28;20242;-68
2022/12/08 07:16:22;;;;;;;48.07;23.10;;;;;;;9.07;94.45;99615.50;5052362;28;20188;-64
2022/12/08 07:18:50;;;;;;;37.80;20.47;;;;;;;9.12;93.65;99618.41;5052271;28;20585;-66
2022/12/08 07:21:17;;;;;;;42.37;22.00;;;;;;;9.06;92.24;99621.78;5049254;28;20196;-67
2022/12/08 07:23:46;;;;;;;49.53;22.57;;;;;;;9.04;92.57;99626.44;5050164;28;20304;-67
2022/12/08 07:26:13;;;;;;;35.30;21.37;;;;;;;9.03;91.57;99638.06;5051885;28;20192;-68
2022/12/08 07:28:41;;;;;;;47.43;26.23;;;;;;;8.96;92.66;99639.78;5050976;28;20192;-68
2022/12/08 07:31:18;;;;;;;42.60;23.53;;;;;;;8.87;92.36;99646.97;5051825;28;20196;-69
2022/12/08 07:33:45;;;;;;;41.27;22.27;;;;;;;8.80;91.94;99650.53;5049538;28;20291;-66
2022/12/08 07:36:13;;;;;;;56.47;22.60;;;;;;;8.76;93.00;99646.59;5052025;28;20197;-67
2022/12/08 07:38:40;;;;;;;63.33;30.93;;;;;;;8.82;92.80;99651.19;5052032;28;20189;-69
2022/12/08 07:41:12;;;;;;;79.67;39.67;;;;;;;8.91;92.88;99653.56;5051702;28;20188;-69
2022/12/08 07:43:38;;;;;;;48.57;28.60;;;;;;;8.91;92.26;99653.56;5052239;28;20560;-67
2022/12/08 07:46:05;;;;;;;50.13;25.77;;;;;;;8.94;92.63;99663.00;5052293;28;20266;-69
2022/12/08 07:48:32;;;;;;;64.47;26.27;;;;;;;8.97;92.70;99662.59;5051986;28;20704;-68
2022/12/08 07:51:02;;;;;;;65.70;26.37;;;;;;;9.05;92.19;99666.00;5052877;28;20196;-69
2022/12/08 07:53:31;;;;;;;40.37;22.80;;;;;;;9.10;91.59;99668.09;5052046;28;20204;-69
2022/12/08 07:55:58;;;;;;;52.60;22.37;;;;;;;9.05;90.44;99665.16;5051112;28;20189;-69
2022/12/08 07:58:26;;;;;;;40.53;22.77;;;;;;;8.95;90.65;99664.63;5051906;28;20234;-70
2022/12/08 08:00:53;;;;;;;40.40;22.13;;;;;;;8.90;91.48;99667.00;5051675;28;20732;-70
2022/12/08 08:03:20;;;;;;;39.30;21.23;;;;;;;8.87;91.64;99667.38;5050607;28;20222;-70
2022/12/08 08:05:48;;;;;;;84.90;24.53;;;;;;;8.91;91.37;99668.66;5047712;28;20188;-71
2022/12/08 08:08:15;;;;;;;50.17;25.67;;;;;;;8.92;91.47;99671.13;5051507;28;20258;-70
2022/12/08 08:10:45;;;;;;;48.17;26.37;;;;;;;8.94;91.52;99671.75;5032095;28;20255;-70
2022/12/08 08:13:11;;;;;;;51.63;24.50;;;;;;;8.84;90.76;99665.06;5046998;28;20675;-69
2022/12/08 08:15:38;;;;;;;65.10;24.63;;;;;;;8.73;92.10;99644.31;5052505;28;20258;-68
2022/12/08 08:18:05;;;;;;;52.10;24.47;;;;;;;9.00;92.27;99667.56;5051891;28;20273;-69
2022/12/08 08:20:32;;;;;;;48.93;26.27;;;;;;;8.99;91.44;99671.22;5051412;28;20220;-69
2022/12/08 08:22:59;;;;;;;63.80;25.47;;;;;;;9.03;91.08;99659.25;5051608;28;20725;-69
2022/12/08 08:25:25;;;;;;;47.73;24.47;;;;;;;9.25;91.31;99683.00;5051256;28;20196;-69
2022/12/08 08:27:54;;;;;;;46.50;23.47;;;;;;;9.29;89.83;99684.28;5051308;28;20298;-70
2022/12/08 08:30:21;;;;;;;48.27;23.53;;;;;;;9.26;90.37;99681.16;5051657;28;20254;-69
2022/12/08 08:32:47;;;;;;;36.83;22.70;;;;;;;9.32;90.13;99685.75;5053288;28;20200;-69
2022/12/08 08:35:14;;;;;;;47.03;21.50;;;;;;;9.32;90.23;99673.31;5055088;28;20218;-69
2022/12/08 08:37:41;;;;;;;37.53;22.83;;;;;;;9.30;88.94;99671.84;5038636;28;20669;-69
2022/12/08 08:40:09;;;;;;;41.87;22.90;;;;;;;9.20;90.07;99652.75;5036261;28;20189;-69
2022/12/08 08:42:35;;;;;;;44.73;25.27;;;;;;;9.38;89.43;99666.44;5038331;28;20632;-70
2022/12/08 08:45:04;;;;;;;31.37;21.07;;;;;;;9.47;88.98;99660.88;5035635;28;20254;-70
2022/12/08 08:47:31;;;;;;;42.30;22.33;;;;;;;9.48;89.06;99667.00;5046821;28;20266;-69
2022/12/08 08:49:57;;;;;;;42.67;23.23;;;;;;;9.51;89.21;99661.31;5055430;28;20254;-68
2022/12/08 08:52:24;;;;;;;55.07;23.43;;;;;;;9.61;88.82;99662.66;5055261;28;20656;-70
2022/12/08 08:54:51;;;;;;;48.10;21.87;;;;;;;9.71;88.51;99652.59;5055687;28;20196;-67
2022/12/08 08:57:17;;;;;;;34.57;19.73;;;;;;;9.80;88.00;99645.38;5055790;28;20258;-70
2022/12/08 08:59:44;;;;;;;39.17;19.57;;;;;;;9.85;87.06;99653.56;5056069;28;20227;-69
2022/12/08 09:02:16;;;;;;;71.47;21.43;;;;;;;9.88;86.56;99654.00;5054081;28;20668;-70
2022/12/08 09:04:43;;;;;;;32.87;19.60;;;;;;;9.82;87.00;99644.16;5054989;28;20272;-69
2022/12/08 09:07:09;;;;;;;45.70;22.87;;;;;;;9.81;87.92;99636.38;5055121;28;20709;-69
2022/12/08 09:09:37;;;;;;;55.73;20.13;;;;;;;9.85;88.05;99627.84;5054752;28;20197;-67
2022/12/08 09:12:04;;;;;;;50.97;22.13;;;;;;;10.01;87.62;99632.13;5054942;28;20193;-70
2022/12/08 09:14:31;;;;;;;50.60;22.67;;;;;;;9.98;86.57;99617.41;5054822;28;20283;-70
2022/12/08 09:16:58;;;;;;;52.00;21.23;;;;;;;10.15;87.29;99644.53;5044110;28;20197;-67
2022/12/08 09:19:26;;;;;;;37.97;20.77;;;;;;;10.18;86.14;99649.47;5039041;28;20228;-69
2022/12/08 09:21:52;;;;;;;37.83;21.87;;;;;;;10.07;86.30;99626.91;5054887;28;20201;-70
2022/12/08 09:24:19;;;;;;;43.73;23.53;;;;;;;10.05;86.67;99628.09;5054370;28;20660;-69
2022/12/08 09:26:46;;;;;;;61.57;24.33;;;;;;;10.11;87.18;99622.03;5054568;28;20200;-69
2022/12/08 09:29:13;;;;;;;51.93;25.40;;;;;;;10.26;87.50;99625.44;5054245;28;20196;-68
2022/12/08 09:31:40;;;;;;;57.77;23.43;;;;;;;10.32;87.14;99624.66;5054463;28;20227;-69
2022/12/08 09:34:07;;;;;;;56.53;25.10;;;;;;;10.40;85.84;99620.06;5054844;28;20197;-69
2022/12/08 09:36:35;;;;;;;66.60;30.93;;;;;;;10.39;85.42;99621.09;5054452;28;20250;-71
2022/12/08 09:39:02;;;;;;;56.67;29.73;;;;;;;10.47;85.87;99617.47;5054529;28;20207;-67
2022/12/08 09:41:33;;;;;;;56.57;26.67;;;;;;;10.53;85.09;99612.19;5054368;28;20192;-68
2022/12/08 09:44:16;;;;;;;52.53;26.67;;;;;;;10.62;85.92;99608.38;5054128;28;20279;-68
2022/12/08 09:46:43;;;;;;;60.07;24.57;;;;;;;10.75;85.47;99611.13;5054437;28;20188;-66
2022/12/08 09:49:14;;;;;;;56.87;27.30;;;;;;;10.73;84.94;99601.69;5053359;28;20281;-69
2022/12/08 09:51:45;;;;;;;50.10;26.50;;;;;;;10.80;84.73;99614.03;5054980;28;20189;-67
2022/12/08 09:54:17;;;;;;;56.70;26.13;;;;;;;10.89;84.70;99612.03;5053910;28;20668;-71
2022/12/08 09:56:44;;;;;;;40.97;23.87;;;;;;;10.94;84.08;99610.44;5054285;28;20238;-72
2022/12/08 09:59:23;;;;;;;60.80;24.70;;;;;;;10.98;83.00;99599.41;5054346;28;20196;-69
2022/12/08 10:01:50;;;;;;;47.00;22.00;;;;;;;10.98;81.94;99607.41;5053659;28;20664;-68
2022/12/08 10:04:23;;;;;;;47.60;24.17;;;;;;;10.91;82.72;99607.34;5053608;28;20193;-70
2022/12/08 10:07:03;;;;;;;44.93;25.67;;;;;;;10.92;82.54;99601.81;5051944;28;20220;-71
2022/12/08 10:09:39;;;;;;;38.33;22.93;;;;;;;10.80;81.67;99603.41;5050189;28;20191;-69
2022/12/08 10:12:14;;;;;;;48.87;24.23;;;;;;;10.75;82.78;99594.38;5051145;28;20208;-69
2022/12/08 10:14:43;;;;;;;54.10;25.13;;;;;;;10.80;83.38;99597.25;5052810;28;20188;-70
2022/12/08 10:17:17;;;;;;;53.07;26.33;;;;;;;10.68;82.58;99583.72;5053364;28;20266;-70
2022/12/08 10:19:46;;;;;;;56.50;26.80;;;;;;;10.67;84.32;99583.91;5053837;28;20303;-72
2022/12/08 10:22:21;;;;;;;67.13;26.87;;;;;;;10.72;84.64;99562.88;5053565;28;20271;-72
2022/12/08 10:24:55;;;;;;;64.17;27.93;;;;;;;10.75;83.80;99570.47;5050212;28;20185;-70
2022/12/08 10:27:23;;;;;;;57.57;27.87;;;;;;;10.69;84.02;99573.88;5034252;28;20204;-69
2022/12/08 10:29:50;;;;;;;55.27;27.17;;;;;;;10.48;84.19;99581.91;5036336;28;20570;-68
2022/12/08 10:32:20;;;;;;;47.10;26.30;;;;;;;10.53;85.22;99585.63;5054163;28;20200;-69
2022/12/08 10:35:02;;;;;;;66.00;30.03;;;;;;;10.60;84.80;99591.81;5053244;28;20656;-70
2022/12/08 10:37:30;;;;;;;58.77;27.27;;;;;;;10.68;84.79;99582.88;5050847;28;20257;-69
2022/12/08 10:40:02;;;;;;;54.83;26.97;;;;;;;10.78;84.84;99572.72;5050565;28;20197;-69
2022/12/08 10:42:35;;;;;;;56.70;31.63;;;;;;;10.86;84.56;99564.56;5052107;28;20623;-70
2022/12/08 10:45:22;;;;;;;74.53;28.97;;;;;;;10.90;84.63;99571.16;5052355;28;20727;-69
2022/12/08 10:47:57;;;;;;;56.53;30.23;;;;;;;11.02;83.71;99569.56;5050496;28;20262;-69
2022/12/08 10:50:30;;;;;;;50.90;28.63;;;;;;;10.98;82.88;99556.91;5050582;28;20657;-70
2022/12/08 10:52:59;;;;;;;60.70;28.40;;;;;;;10.74;83.16;99548.38;5052522;28;20647;-68
2022/12/08 10:55:28;;;;;;;66.53;30.73;;;;;;;10.77;83.72;99552.47;5050595;28;20192;-70
2022/12/08 10:57:55;;;;;;;54.27;29.80;;;;;;;10.87;84.01;99555.63;5051906;28;20636;-69
2022/12/08 11:00:25;;;;;;;62.47;31.43;;;;;;;10.83;82.95;99554.38;5053002;28;20200;-69
2022/12/08 11:02:55;;;;;;;59.90;30.23;;;;;;;10.90;83.80;99560.50;5053203;28;20196;-69
2022/12/08 11:05:26;;;;;;;50.37;28.07;;;;;;;10.77;83.28;99555.97;5051136;28;20547;-69
2022/12/08 11:07:55;;;;;;;47.60;28.50;;;;;;;10.70;83.49;99548.94;5053682;28;20209;-69
2022/12/08 11:10:34;;;;;;;51.07;29.57;;;;;;;10.89;82.92;99553.56;5052750;28;20193;-69
2022/12/08 11:13:03;;;;;;;54.03;28.77;;;;;;;10.98;83.05;99554.25;5053415;28;20272;-69
2022/12/08 11:15:37;;;;;;;59.93;28.73;;;;;;;11.02;82.90;99548.31;5052569;28;20607;-69
2022/12/08 11:18:09;;;;;;;54.03;28.63;;;;;;;11.01;82.75;99541.38;5052763;28;20188;-70
2022/12/08 11:20:40;;;;;;;63.57;30.77;;;;;;;11.02;83.45;99537.69;5052723;28;20290;-69
2022/12/08 11:23:19;;;;;;;68.70;29.53;;;;;;;11.01;83.38;99536.06;5052929;28;20271;-69
2022/12/08 11:25:49;;;;;;;57.77;29.10;;;;;;;11.10;83.09;99540.16;5052870;28;20271;-70
2022/12/08 11:28:19;;;;;;;90.13;30.83;;;;;;;11.10;83.31;99539.38;5052646;28;20220;-70
2022/12/08 11:30:53;;;;;;;55.77;28.87;;;;;;;10.96;82.77;99531.31;5052554;28;20220;-70
2022/12/08 11:33:22;;;;;;;63.90;29.93;;;;;;;10.92;83.45;99526.59;5052730;28;20755;-70
2022/12/08 11:35:54;;;;;;;59.20;30.20;;;;;;;10.94;83.63;99520.06;5052603;28;20193;-69
2022/12/08 11:38:24;;;;;;;56.10;30.53;;;;;;;11.06;83.87;99527.50;5053694;28;20196;-69
2022/12/08 11:40:55;;;;;;;93.90;32.30;;;;;;;11.06;83.66;99517.66;5052719;28;20208;-70